createdAt,value
2018-02-01T00:02:14.456Z,100252.56
2018-02-01T00:04:43.140Z,100249.95
2018-02-01T00:07:11.826Z,100245.17
2018-02-01T00:09:40.412Z,100250.72
2018-02-01T00:12:09.140Z,100252.30
2018-02-01T00:14:38.596Z,100250.00
2018-02-01T00:17:07.226Z,100249.49
2018-02-01T00:19:36.743Z,100249.45
2018-02-01T00:22:06.190Z,100258.33
2018-02-01T00:24:34.876Z,100253.97
2018-02-01T00:27:03.821Z,100256.55
2018-02-01T00:29:33.278Z,100255.19
2018-02-01T00:32:01.964Z,100251.17
2018-02-01T00:34:30.896Z,100252.27
2018-02-01T00:37:00.367Z,100252.03
2018-02-01T00:39:29.142Z,100246.81
2018-02-01T00:41:58.102Z,100239.84
2018-02-01T00:44:26.819Z,100239.45
2018-02-01T00:46:55.506Z,100237.20
2018-02-01T00:49:24.402Z,100230.80
2018-02-01T00:51:53.023Z,100224.24
2018-02-01T00:54:22.485Z,100222.27
2018-02-01T00:56:51.459Z,100216.17
2018-02-01T00:59:20.164Z,100219.47
2018-02-01T01:01:48.849Z,100215.19
2018-02-01T01:04:17.536Z,100218.08
2018-02-01T01:06:46.221Z,100208.62
2018-02-01T01:09:14.907Z,100208.09
2018-02-01T01:11:43.902Z,100205.14
2018-02-01T01:14:12.533Z,100203.80
2018-02-01T01:16:41.888Z,100197.59
2018-02-01T01:19:10.989Z,100203.75
2018-02-01T01:21:39.607Z,100197.30
2018-02-01T01:24:09.073Z,100197.98
2018-02-01T01:26:37.858Z,100198.20
2018-02-01T01:29:06.544Z,100200.45
2018-02-01T01:31:35.132Z,100201.91
2018-02-01T01:34:04.098Z,100197.44
2018-02-01T01:36:32.810Z,100198.61
2018-02-01T01:39:01.434Z,100201.53
2018-02-01T01:41:30.900Z,100194.16
2018-02-01T01:43:59.484Z,100188.97
2018-02-01T01:46:28.112Z,100191.20
2018-02-01T01:48:57.577Z,100186.71
2018-02-01T01:51:26.252Z,100195.83
2018-02-01T01:53:54.938Z,100194.61
2018-02-01T01:56:23.734Z,100184.88
2018-02-01T01:58:52.372Z,100190.02
2018-02-01T02:01:21.818Z,100184.64
2018-02-01T02:03:50.786Z,100182.48
2018-02-01T02:06:19.498Z,100179.24
2018-02-01T02:08:48.121Z,100178.41
2018-02-01T02:11:17.588Z,100172.22
2018-02-01T02:13:46.170Z,100173.05
2018-02-01T02:16:14.799Z,100173.30
2018-02-01T02:18:44.517Z,100178.94
2018-02-01T02:21:13.247Z,100176.18
2018-02-01T02:23:41.879Z,100172.55
2018-02-01T02:26:11.395Z,100176.36
2018-02-01T02:28:40.840Z,100169.36
2018-02-01T02:31:09.428Z,100169.63
2018-02-01T02:33:38.124Z,100166.90
2018-02-01T02:36:06.899Z,100163.34
2018-02-01T02:38:35.484Z,100161.20
2018-02-01T02:41:04.177Z,100167.58
2018-02-01T02:43:32.821Z,100167.55
2018-02-01T02:46:01.544Z,100169.19
2018-02-01T02:48:30.330Z,100171.66
2018-02-01T02:50:59.014Z,100173.15
2018-02-01T02:53:27.702Z,100175.15
2018-02-01T02:55:56.495Z,100169.45
2018-02-01T02:58:25.180Z,100163.45
2018-02-01T03:00:53.872Z,100157.93
2018-02-01T03:03:22.711Z,100157.16
2018-02-01T03:05:51.436Z,100157.85
2018-02-01T03:08:20.097Z,100156.75
2018-02-01T03:10:49.064Z,100154.48
2018-02-01T03:13:18.524Z,100149.45
2018-02-01T03:15:47.146Z,100156.73
2018-02-01T03:18:16.918Z,100150.34
2018-02-01T03:20:45.560Z,100155.96
2018-02-01T03:23:14.289Z,100148.48
2018-02-01T03:25:43.020Z,100149.70
2018-02-01T03:28:12.483Z,100149.59
2018-02-01T03:30:41.103Z,100131.03
2018-02-01T03:33:10.823Z,100146.86
2018-02-01T03:35:40.274Z,100144.63
2018-02-01T03:38:09.069Z,100145.05
2018-02-01T03:40:37.802Z,100139.98
2018-02-01T03:43:07.253Z,100133.19
2018-02-01T03:45:35.887Z,100142.17
2018-02-01T03:48:05.354Z,100127.97
2018-02-01T03:50:34.018Z,100126.13
2018-02-01T03:53:02.685Z,100123.92
2018-02-01T03:55:31.604Z,100127.05
2018-02-01T03:58:00.289Z,100127.20
2018-02-01T04:00:28.942Z,100125.59
2018-02-01T04:02:57.667Z,100119.67
2018-02-01T04:05:26.348Z,100127.45
2018-02-01T04:07:55.042Z,100128.81
2018-02-01T04:10:24.136Z,100131.56
2018-02-01T04:12:52.822Z,100128.95
2018-02-01T04:15:21.502Z,100134.03
2018-02-01T04:17:50.600Z,100125.13
2018-02-01T04:20:19.285Z,100130.27
2018-02-01T04:22:47.972Z,100128.37
2018-02-01T04:25:16.865Z,100125.92
2018-02-01T04:27:45.486Z,100120.34
2018-02-01T04:30:14.846Z,100116.30
2018-02-01T04:32:43.636Z,100121.27
2018-02-01T04:35:13.087Z,100121.87
2018-02-01T04:37:42.544Z,100116.30
2018-02-01T04:40:11.475Z,100117.78
2018-02-01T04:42:40.942Z,100119.19
2018-02-01T04:45:09.682Z,100122.29
2018-02-01T04:47:39.438Z,100132.30
2018-02-01T04:50:08.125Z,100131.78
2018-02-01T04:52:36.909Z,100125.41
2018-02-01T04:55:05.603Z,100125.83
2018-02-01T04:57:34.181Z,100127.20
2018-02-01T05:00:02.966Z,100114.98
2018-02-01T05:02:32.109Z,100124.34
2018-02-01T05:05:01.567Z,100118.23
2018-02-01T05:07:30.252Z,100116.59
2018-02-01T05:09:59.238Z,100110.41
2018-02-01T05:12:27.931Z,100111.69
2018-02-01T05:14:56.573Z,100119.33
2018-02-01T05:17:25.303Z,100118.95
2018-02-01T05:19:53.933Z,100121.03
2018-02-01T05:22:23.399Z,100124.06
2018-02-01T05:24:52.184Z,100123.03
2018-02-01T05:27:20.870Z,100129.05
2018-02-01T05:29:49.555Z,100130.88
2018-02-01T05:32:18.450Z,100131.02
2018-02-01T05:34:47.135Z,100130.56
2018-02-01T05:37:15.756Z,100132.99
2018-02-01T05:39:45.225Z,100128.64
2018-02-01T05:42:13.967Z,100126.65
2018-02-01T05:44:42.635Z,100123.50
2018-02-01T05:47:12.153Z,100123.12
2018-02-01T05:49:41.500Z,100113.94
2018-02-01T05:52:10.052Z,100121.08
2018-02-01T05:54:38.970Z,100116.31
2018-02-01T05:57:07.624Z,100127.34
2018-02-01T05:59:36.292Z,100124.79
2018-02-01T06:02:05.949Z,100113.67
2018-02-01T06:04:34.601Z,100119.35
2018-02-01T06:07:03.322Z,100108.03
2018-02-01T06:09:32.116Z,100107.91
2018-02-01T06:12:00.805Z,100115.75
2018-02-01T06:14:29.494Z,100121.36
2018-02-01T06:16:58.340Z,100117.79
2018-02-01T06:19:26.960Z,100118.28
2018-02-01T06:21:55.743Z,100112.83
2018-02-01T06:24:24.593Z,100115.30
2018-02-01T06:26:53.323Z,100119.62
2018-02-01T06:29:22.009Z,100118.27
2018-02-01T06:31:50.971Z,100118.53
2018-02-01T06:34:19.688Z,100122.78
2018-02-01T06:36:48.406Z,100119.13
2018-02-01T06:39:17.975Z,100136.55
2018-02-01T06:41:46.666Z,100135.34
2018-02-01T06:44:15.353Z,100121.66
2018-02-01T06:46:43.954Z,100121.19
2018-02-01T06:49:12.527Z,100116.78
2018-02-01T06:51:41.098Z,100122.05
2018-02-01T06:54:09.808Z,100126.27
2018-02-01T06:56:38.685Z,100120.97
2018-02-01T06:59:07.370Z,100113.39
2018-02-01T07:01:40.247Z,100119.98
2018-02-01T07:04:09.349Z,100110.30
2018-02-01T07:06:37.991Z,100103.51
2018-02-01T07:09:06.720Z,100108.16
2018-02-01T07:11:35.303Z,100109.53
2018-02-01T07:14:03.885Z,100105.75
2018-02-01T07:16:32.816Z,100115.39
2018-02-01T07:19:02.277Z,100113.24
2018-02-01T07:21:30.836Z,100109.52
2018-02-01T07:24:00.054Z,100109.57
2018-02-01T07:26:28.733Z,100116.04
2018-02-01T07:28:57.326Z,100114.67
2018-02-01T07:31:26.019Z,100122.33
2018-02-01T07:33:54.691Z,100121.20
2018-02-01T07:36:23.383Z,100122.22
2018-02-01T07:38:53.260Z,100120.02
2018-02-01T07:41:22.719Z,100118.30
2018-02-01T07:43:51.441Z,100120.41
2018-02-01T07:46:20.228Z,100128.34
2018-02-01T07:48:49.026Z,100124.67
2018-02-01T07:51:17.708Z,100133.95
2018-02-01T07:53:46.458Z,100132.54
2018-02-01T07:56:15.179Z,100130.76
2018-02-01T07:58:43.843Z,100135.89
2018-02-01T08:01:12.811Z,100132.97
2018-02-01T08:03:41.544Z,100142.27
2018-02-01T08:06:10.132Z,100142.03
2018-02-01T08:08:38.864Z,100138.50
2018-02-01T08:11:08.323Z,100131.16
2018-02-01T08:13:36.899Z,100146.35
2018-02-01T08:16:05.842Z,100135.64
2018-02-01T08:18:35.302Z,100141.41
2018-02-01T08:21:04.094Z,100139.30
2018-02-01T08:23:33.694Z,100136.48
2018-02-01T08:26:02.381Z,100137.11
2018-02-01T08:28:30.960Z,100145.44
2018-02-01T08:30:59.608Z,100139.25
2018-02-01T08:33:28.189Z,100135.33
2018-02-01T08:35:56.741Z,100133.03
2018-02-01T08:38:25.344Z,100136.23
2018-02-01T08:40:54.702Z,100132.17
2018-02-01T08:43:23.284Z,100131.83
2018-02-01T08:45:52.063Z,100138.47
2018-02-01T08:48:20.624Z,100138.16
2018-02-01T08:50:49.179Z,100135.84
2018-02-01T08:53:18.640Z,100134.61
2018-02-01T08:55:47.189Z,100129.24
2018-02-01T08:58:15.789Z,100127.17
2018-02-01T09:00:44.406Z,100123.03
2018-02-01T09:03:13.179Z,100130.77
2018-02-01T09:05:41.865Z,100120.08
2018-02-01T09:08:10.858Z,100123.13
2018-02-01T09:10:39.408Z,100124.16
2018-02-01T09:13:07.972Z,100125.68
2018-02-01T09:15:37.627Z,100121.95
2018-02-01T09:18:06.185Z,100120.23
2018-02-01T09:20:34.739Z,100117.97
2018-02-01T09:23:04.147Z,100120.50
2018-02-01T09:25:32.728Z,100107.36
2018-02-01T09:28:01.280Z,100103.35
2018-02-01T09:30:30.196Z,100100.98
2018-02-01T09:32:59.524Z,100098.95
2018-02-01T09:35:28.085Z,100097.44
2018-02-01T09:37:57.644Z,100087.34
2018-02-01T09:40:26.206Z,100082.30
2018-02-01T09:42:54.763Z,100065.77
2018-02-01T09:45:23.491Z,100057.70
2018-02-01T09:47:52.056Z,100058.16
2018-02-01T09:50:20.622Z,100056.38
2018-02-01T09:52:49.241Z,100050.78
2018-02-01T09:55:18.618Z,100054.80
2018-02-01T09:57:47.224Z,100048.80
2018-02-01T10:00:16.020Z,100037.61
2018-02-01T10:02:44.580Z,100034.89
2018-02-01T10:05:13.144Z,100035.12
2018-02-01T10:07:42.512Z,100038.75
2018-02-01T10:10:11.070Z,100034.68
2018-02-01T10:12:39.629Z,100025.25
2018-02-01T10:15:08.547Z,100028.61
2018-02-01T10:17:37.146Z,100018.34
2018-02-01T10:20:05.704Z,100019.63
2018-02-01T10:22:34.400Z,100014.05
2018-02-01T10:25:02.975Z,100002.48
2018-02-01T10:27:31.525Z,99995.56
2018-02-01T10:30:00.452Z,99986.27
2018-02-01T10:32:29.061Z,99984.47
2018-02-01T10:34:58.388Z,99981.86
2018-02-01T10:37:26.995Z,99983.77
2018-02-01T10:39:55.555Z,99969.52
2018-02-01T10:42:24.936Z,99961.59
2018-02-01T10:44:54.507Z,99953.63
2018-02-01T10:47:23.082Z,99951.94
2018-02-01T10:49:51.651Z,99948.63
2018-02-01T10:52:20.470Z,99943.27
2018-02-01T10:54:49.048Z,99944.20
2018-02-01T10:57:18.368Z,99935.16
2018-02-01T10:59:46.977Z,99926.97
2018-02-01T11:02:16.381Z,99920.67
2018-02-01T11:04:45.703Z,99918.63
2018-02-01T11:07:14.318Z,99907.81
2018-02-01T11:09:42.880Z,99900.38
2018-02-01T11:12:11.443Z,99896.23
2018-02-01T11:14:40.080Z,99889.59
2018-02-01T11:17:08.648Z,99890.05
2018-02-01T11:19:37.296Z,99887.36
2018-02-01T11:22:05.996Z,99881.09
2018-02-01T11:24:34.560Z,99876.59
2018-02-01T11:27:03.115Z,99877.94
2018-02-01T11:29:31.720Z,99866.48
2018-02-01T11:32:01.041Z,99858.63
2018-02-01T11:34:30.371Z,99855.52
2018-02-01T11:36:58.999Z,99843.36
2018-02-01T11:39:28.320Z,99841.72
2018-02-01T11:41:56.882Z,99836.74
2018-02-01T11:44:26.453Z,99834.16
2018-02-01T11:46:55.028Z,99825.78
2018-02-01T11:49:23.602Z,99822.45
2018-02-01T11:51:52.200Z,99818.33
2018-02-01T11:54:20.760Z,99817.89
2018-02-01T11:56:49.320Z,99804.45
2018-02-01T11:59:17.948Z,99803.30
2018-02-01T12:01:46.540Z,99806.78
2018-02-01T12:04:16.676Z,99805.30
2018-02-01T12:06:45.535Z,99805.43
2018-02-01T12:09:14.093Z,99801.63
2018-02-01T12:11:42.669Z,99796.50
2018-02-01T12:14:11.497Z,99795.03
2018-02-01T12:16:40.054Z,99795.22
2018-02-01T12:19:08.621Z,99787.11
2018-02-01T12:21:37.241Z,99784.17
2018-02-01T12:24:05.801Z,99777.05
2018-02-01T12:26:34.375Z,99779.81
2018-02-01T12:29:02.998Z,99771.14
2018-02-01T12:31:31.591Z,99765.84
2018-02-01T12:34:00.157Z,99765.23
2018-02-01T12:36:28.764Z,99757.75
2018-02-01T12:38:57.324Z,99755.30
2018-02-01T12:41:25.876Z,99741.34
2018-02-01T12:43:54.912Z,99746.44
2018-02-01T12:46:23.531Z,99744.09
2018-02-01T12:48:52.855Z,99742.13
2018-02-01T12:51:21.678Z,99732.83
2018-02-01T12:53:50.232Z,99725.52
2018-02-01T12:56:18.793Z,99723.02
2018-02-01T12:58:48.352Z,99720.94
2018-02-01T13:01:16.917Z,99719.81
2018-02-01T13:03:45.488Z,99728.50
2018-02-01T13:06:14.305Z,99719.20
2018-02-01T13:08:42.872Z,99718.95
2018-02-01T13:11:11.440Z,99719.89
2018-02-01T13:13:40.158Z,99724.72
2018-02-01T13:16:08.717Z,99717.24
2018-02-01T13:18:37.276Z,99715.55
2018-02-01T13:21:05.895Z,99716.69
2018-02-01T13:23:34.449Z,99704.81
2018-02-01T13:26:03.004Z,99706.85
2018-02-01T13:28:32.376Z,99711.50
2018-02-01T13:31:00.966Z,99709.78
2018-02-01T13:33:29.545Z,99705.03
2018-02-01T13:35:58.431Z,99705.19
2018-02-01T13:38:27.756Z,99702.67
2018-02-01T13:40:56.316Z,99702.92
2018-02-01T13:43:25.097Z,99702.28
2018-02-01T13:45:53.672Z,99699.39
2018-02-01T13:48:22.230Z,99695.52
2018-02-01T13:50:50.832Z,99692.20
2018-02-01T13:53:19.400Z,99691.71
2018-02-01T13:55:47.959Z,99694.19
2018-02-01T13:58:17.332Z,99702.61
2018-02-01T14:00:45.906Z,99706.58
2018-02-01T14:03:14.472Z,99713.70
2018-02-01T14:05:43.367Z,99719.94
2018-02-01T14:08:11.953Z,99714.34
2018-02-01T14:10:40.505Z,99714.75
2018-02-01T14:13:09.129Z,99709.15
2018-02-01T14:15:37.688Z,99712.06
2018-02-01T14:18:06.253Z,99701.33
2018-02-01T14:20:34.884Z,99694.79
2018-02-01T14:23:03.448Z,99688.47
2018-02-01T14:25:32.036Z,99695.13
2018-02-01T14:28:01.069Z,99691.65
2018-02-01T14:30:30.405Z,99692.37
2018-02-01T14:32:58.964Z,99690.06
2018-02-01T14:35:28.725Z,99697.83
2018-02-01T14:37:57.282Z,99693.99
2018-02-01T14:40:25.847Z,99697.93
2018-02-01T14:42:54.464Z,99704.41
2018-02-01T14:45:23.024Z,99697.98
2018-02-01T14:47:51.585Z,99690.46
2018-02-01T14:50:20.959Z,99689.67
2018-02-01T14:52:49.533Z,99695.06
2018-02-01T14:55:18.084Z,99696.56
2018-02-01T14:57:47.006Z,99701.00
2018-02-01T15:00:15.581Z,99699.95
2018-02-01T15:02:44.158Z,99704.17
2018-02-01T15:05:13.165Z,99701.35
2018-02-01T15:07:41.738Z,99711.97
2018-02-01T15:10:10.296Z,99714.93
2018-02-01T15:12:38.930Z,99711.30
2018-02-01T15:15:07.493Z,99713.83
2018-02-01T15:17:36.052Z,99718.48
2018-02-01T15:20:04.661Z,99721.88
2018-02-01T15:22:33.212Z,99721.11
2018-02-01T15:25:01.782Z,99718.97
2018-02-01T15:27:31.151Z,99710.81
2018-02-01T15:29:59.712Z,99720.53
2018-02-01T15:32:28.272Z,99722.64
2018-02-01T15:34:56.882Z,99726.14
2018-02-01T15:37:25.450Z,99725.63
2018-02-01T15:39:54.776Z,99716.97
2018-02-01T15:42:23.557Z,99719.09
2018-02-01T15:44:52.121Z,99727.27
2018-02-01T15:47:20.684Z,99732.83
2018-02-01T15:49:49.614Z,99732.98
2018-02-01T15:52:18.184Z,99734.03
2018-02-01T15:54:46.751Z,99731.88
2018-02-01T15:57:15.569Z,99731.78
2018-02-01T15:59:44.123Z,99730.34
2018-02-01T16:02:12.707Z,99732.08
2018-02-01T16:04:41.641Z,99731.66
2018-02-01T16:07:10.206Z,99735.37
2018-02-01T16:09:38.773Z,99726.06
2018-02-01T16:12:07.377Z,99721.67
2018-02-01T16:14:35.949Z,99727.13
2018-02-01T16:17:05.273Z,99723.76
2018-02-01T16:19:34.228Z,99728.54
2018-02-01T16:22:02.877Z,99731.96
2018-02-01T16:24:31.485Z,99727.17
2018-02-01T16:27:00.294Z,99726.66
2018-02-01T16:29:28.897Z,99726.48
2018-02-01T16:31:57.467Z,99734.75
2018-02-01T16:34:28.709Z,99736.81
2018-02-01T16:36:57.306Z,99743.79
2018-02-01T16:39:25.879Z,99738.12
2018-02-01T16:41:54.875Z,99740.10
2018-02-01T16:44:23.428Z,99741.45
2018-02-01T16:46:51.988Z,99743.42
2018-02-01T16:49:20.826Z,99741.21
2018-02-01T16:51:49.392Z,99742.59
2018-02-01T16:54:17.951Z,99743.79
2018-02-01T16:56:46.556Z,99747.33
2018-02-01T16:59:15.111Z,99751.34
2018-02-01T17:01:43.669Z,99750.97
2018-02-01T17:04:12.281Z,99753.91
2018-02-01T17:06:40.833Z,99761.39
2018-02-01T17:09:10.324Z,99762.38
2018-02-01T17:11:39.790Z,99763.06
2018-02-01T17:14:08.370Z,99765.09
2018-02-01T17:16:36.925Z,99762.31
2018-02-01T17:19:05.533Z,99757.46
2018-02-01T17:21:34.084Z,99761.97
2018-02-01T17:24:02.642Z,99758.59
2018-02-01T17:26:32.206Z,99753.54
2018-02-01T17:29:00.750Z,99762.50
2018-02-01T17:31:29.308Z,99755.00
2018-02-01T17:33:58.832Z,99758.83
2018-02-01T17:36:27.393Z,99757.17
2018-02-01T17:38:55.940Z,99753.23
2018-02-01T17:41:24.544Z,99752.42
2018-02-01T17:43:53.104Z,99753.72
2018-02-01T17:46:21.654Z,99764.67
2018-02-01T17:48:50.253Z,99756.12
2018-02-01T17:51:18.810Z,99761.62
2018-02-01T17:53:47.496Z,99758.67
2018-02-01T17:56:16.124Z,99764.53
2018-02-01T17:58:44.685Z,99768.60
2018-02-01T18:01:14.013Z,99772.39
2018-02-01T18:03:42.708Z,99772.69
2018-02-01T18:06:11.256Z,99773.78
2018-02-01T18:08:39.805Z,99786.34
2018-02-01T18:11:09.260Z,99787.91
2018-02-01T18:13:37.813Z,99791.59
2018-02-01T18:16:06.376Z,99792.09
2018-02-01T18:18:36.182Z,99795.83
2018-02-01T18:21:04.748Z,99800.43
2018-02-01T18:23:33.689Z,99784.73
2018-02-01T18:26:02.499Z,99792.50
2018-02-01T18:28:31.049Z,99789.48
2018-02-01T18:30:59.628Z,99794.69
2018-02-01T18:33:28.452Z,99800.02
2018-02-01T18:35:56.997Z,99797.98
2018-02-01T18:38:25.550Z,99799.05
2018-02-01T18:40:54.142Z,99806.72
2018-02-01T18:43:22.684Z,99796.56
2018-02-01T18:45:51.240Z,99803.57
2018-02-01T18:48:19.844Z,99801.64
2018-02-01T18:50:48.409Z,99797.63
2018-02-01T18:53:16.985Z,99804.16
2018-02-01T18:55:45.811Z,99800.00
2018-02-01T18:58:14.364Z,99794.45
2018-02-01T19:00:42.953Z,99792.05
2018-02-01T19:03:11.565Z,99800.52
2018-02-01T19:05:40.124Z,99808.25
2018-02-01T19:08:08.689Z,99806.03
2018-02-01T19:10:37.284Z,99799.07
2018-02-01T19:13:05.848Z,99798.44
2018-02-01T19:15:35.235Z,99801.00
2018-02-01T19:18:04.744Z,99802.86
2018-02-01T19:20:34.072Z,99804.52
2018-02-01T19:23:02.619Z,99804.25
2018-02-01T19:25:31.987Z,99799.83
2018-02-01T19:28:01.521Z,99792.48
2018-02-01T19:30:30.920Z,99800.01
2018-02-01T19:32:59.524Z,99788.12
2018-02-01T19:35:28.858Z,99789.60
2018-02-01T19:37:57.465Z,99784.38
2018-02-01T19:40:26.168Z,99789.28
2018-02-01T19:42:54.737Z,99796.44
2018-02-01T19:45:23.293Z,99805.03
2018-02-01T19:47:52.315Z,99817.58
2018-02-01T19:50:20.868Z,99824.80
2018-02-01T19:52:49.426Z,99834.45
2018-02-01T19:55:18.787Z,99828.92
2018-02-01T19:57:47.809Z,99823.77
2018-02-01T20:00:17.137Z,99832.16
2018-02-01T20:02:45.736Z,99824.38
2018-02-01T20:05:14.283Z,99819.42
2018-02-01T20:07:42.848Z,99820.69
2018-02-01T20:10:12.600Z,99819.20
2018-02-01T20:12:41.146Z,99812.55
2018-02-01T20:15:10.464Z,99818.61
2018-02-01T20:17:39.117Z,99823.45
2018-02-01T20:20:08.506Z,99837.94
2018-02-01T20:22:37.079Z,99844.61
2018-02-01T20:25:05.960Z,99849.20
2018-02-01T20:27:34.520Z,99860.06
2018-02-01T20:30:03.098Z,99853.88
2018-02-01T20:32:31.907Z,99847.54
2018-02-01T20:35:00.456Z,99844.85
2018-02-01T20:37:29.000Z,99840.20
2018-02-01T20:39:57.949Z,99835.22
2018-02-01T20:42:26.496Z,99840.75
2018-02-01T20:44:55.816Z,99840.08
2018-02-01T20:47:24.412Z,99832.30
2018-02-01T20:49:53.041Z,99830.75
2018-02-01T20:52:21.616Z,99841.59
2018-02-01T20:54:50.583Z,99842.12
2018-02-01T20:57:19.196Z,99825.77
2018-02-01T20:59:47.836Z,99818.28
2018-02-01T21:02:16.548Z,99810.71
2018-02-01T21:04:45.097Z,99812.64
2018-02-01T21:07:13.704Z,99807.44
2018-02-01T21:09:42.306Z,99799.33
2018-02-01T21:12:10.885Z,99795.98
2018-02-01T21:14:39.493Z,99808.84
2018-02-01T21:17:08.356Z,99804.61
2018-02-01T21:19:36.924Z,99808.99
2018-02-01T21:22:05.508Z,99808.57
2018-02-01T21:24:34.388Z,99824.47
2018-02-01T21:27:03.044Z,99833.47
2018-02-01T21:29:32.498Z,99842.06
2018-02-01T21:32:01.205Z,99823.89
2018-02-01T21:34:29.759Z,99835.01
2018-02-01T21:36:58.309Z,99843.44
2018-02-01T21:39:27.856Z,99847.69
2018-02-01T21:41:56.408Z,99849.28
2018-02-01T21:44:24.968Z,99852.76
2018-02-01T21:46:54.364Z,99852.58
2018-02-01T21:49:23.828Z,99855.20
2018-02-01T21:51:53.179Z,99859.90
2018-02-01T21:54:22.948Z,99867.97
2018-02-01T21:56:51.512Z,99861.30
2018-02-01T21:59:20.069Z,99851.69
2018-02-01T22:01:48.664Z,99857.27
2018-02-01T22:04:17.221Z,99854.13
2018-02-01T22:06:46.844Z,99858.13
2018-02-01T22:09:15.673Z,99844.94
2018-02-01T22:11:44.224Z,99848.30
2018-02-01T22:14:12.787Z,99844.55
2018-02-01T22:16:42.152Z,99850.73
2018-02-01T22:19:10.700Z,99858.67
2018-02-01T22:21:39.252Z,99875.33
2018-02-01T22:24:08.829Z,99869.70
2018-02-01T22:26:37.396Z,99869.33
2018-02-01T22:29:05.945Z,99868.05
2018-02-01T22:31:34.549Z,99859.43
2018-02-01T22:34:03.100Z,99862.83
2018-02-01T22:36:32.412Z,99854.27
2018-02-01T22:39:01.438Z,99847.98
2018-02-01T22:41:29.988Z,99848.28
2018-02-01T22:43:58.542Z,99846.06
2018-02-01T22:46:27.947Z,99842.34
2018-02-01T22:48:57.272Z,99840.31
2018-02-01T22:51:25.824Z,99837.83
2018-02-01T22:53:55.298Z,99823.48
2018-02-01T22:56:23.864Z,99822.34
2018-02-01T22:58:52.421Z,99820.78
2018-02-01T23:01:21.049Z,99827.93
2018-02-01T23:03:49.624Z,99828.44
2018-02-01T23:06:18.180Z,99825.15
2018-02-01T23:08:46.794Z,99824.78
2018-02-01T23:11:16.168Z,99823.28
2018-02-01T23:13:44.737Z,99814.45
2018-02-01T23:16:14.097Z,99815.81
2018-02-01T23:18:42.653Z,99822.48
2018-02-01T23:21:11.204Z,99825.18
2018-02-01T23:23:40.032Z,99814.93
2018-02-01T23:26:08.582Z,99807.76
2018-02-01T23:28:37.148Z,99805.55
2018-02-01T23:31:06.806Z,99794.49
2018-02-01T23:33:35.356Z,99808.70
2018-02-01T23:36:03.903Z,99808.30
2018-02-01T23:38:32.760Z,99816.55
2018-02-01T23:41:01.304Z,99811.21
2018-02-01T23:43:29.847Z,99812.50
2018-02-01T23:45:58.528Z,99815.78
2018-02-01T23:48:27.835Z,99807.41
2018-02-01T23:50:56.393Z,99785.02
2018-02-01T23:53:25.000Z,99783.02
2018-02-01T23:55:53.561Z,99788.41
2018-02-01T23:58:22.881Z,99776.70
